createdAt,value
2018-11-02T00:00:57.030Z,99569.41
2018-11-02T00:03:24.500Z,99568.28
2018-11-02T00:05:52.055Z,99569.64
2018-11-02T00:08:34.396Z,99567.77
2018-11-02T00:11:18.793Z,99565.50
2018-11-02T00:13:46.286Z,99570.72
2018-11-02T00:16:13.760Z,99574.50
2018-11-02T00:18:41.247Z,99571.17
2018-11-02T00:21:08.759Z,99571.69
2018-11-02T00:23:36.314Z,99572.34
2018-11-02T00:26:03.714Z,99575.53
2018-11-02T00:28:31.195Z,99580.03
2018-11-02T00:30:58.680Z,99581.11
2018-11-02T00:33:26.147Z,99581.81
2018-11-02T00:35:53.586Z,99585.89
2018-11-02T00:38:21.455Z,99584.67
2018-11-02T00:40:48.932Z,99590.29
2018-11-02T00:43:16.425Z,99589.25
2018-11-02T00:45:43.825Z,99586.55
2018-11-02T00:48:11.328Z,99596.89
2018-11-02T00:50:38.816Z,99595.72
2018-11-02T00:53:06.378Z,99604.25
2018-11-02T00:55:33.852Z,99601.91
2018-11-02T00:58:01.384Z,99601.30
2018-11-02T01:00:28.863Z,99608.42
2018-11-02T01:02:56.365Z,99604.58
2018-11-02T01:05:23.840Z,99607.24
2018-11-02T01:07:51.296Z,99618.25
2018-11-02T01:10:18.823Z,99619.47
2018-11-02T01:12:46.277Z,99613.09
2018-11-02T01:15:13.723Z,99613.37
2018-11-02T01:17:41.208Z,99617.16
2018-11-02T01:20:10.105Z,99612.59
2018-11-02T01:22:37.627Z,99615.34
2018-11-02T01:25:05.924Z,99614.75
2018-11-02T01:27:33.403Z,99618.33
2018-11-02T01:30:00.915Z,99623.48
2018-11-02T01:32:28.395Z,99630.84
2018-11-02T01:34:55.827Z,99641.53
2018-11-02T01:37:23.293Z,99641.48
2018-11-02T01:40:25.916Z,99646.16
2018-11-02T01:42:58.393Z,99640.12
2018-11-02T01:45:30.908Z,99640.01
2018-11-02T01:48:03.367Z,99624.89
2018-11-02T01:50:35.892Z,99606.86
2018-11-02T01:53:08.334Z,99606.21
2018-11-02T01:55:40.835Z,99592.63
2018-11-02T01:58:13.465Z,99594.80
2018-11-02T02:00:45.933Z,99596.47
2018-11-02T02:03:18.382Z,99593.61
2018-11-02T02:05:50.916Z,99613.89
2018-11-02T02:08:23.363Z,99623.30
2018-11-02T02:10:55.872Z,99632.72
2018-11-02T02:13:28.444Z,99643.20
2018-11-02T02:16:00.886Z,99644.23
2018-11-02T02:18:33.519Z,99654.95
2018-11-02T02:21:37.187Z,99660.91
2018-11-02T02:24:09.670Z,99657.44
2018-11-02T02:26:42.099Z,99655.98
2018-11-02T02:29:14.515Z,99656.41
2018-11-02T02:31:47.017Z,99659.11
2018-11-02T02:34:19.455Z,99655.27
2018-11-02T02:36:51.889Z,99659.40
2018-11-02T02:39:24.344Z,99667.45
2018-11-02T02:41:56.878Z,99660.23
2018-11-02T02:44:29.437Z,99666.89
2018-11-02T02:47:01.947Z,99676.73
2018-11-02T02:49:34.320Z,99669.42
2018-11-02T02:52:06.793Z,99681.19
2018-11-02T02:54:39.246Z,99680.77
2018-11-02T02:57:11.677Z,99689.76
2018-11-02T02:59:44.152Z,99695.10
2018-11-02T03:02:16.579Z,99699.17
2018-11-02T03:04:49.123Z,99700.91
2018-11-02T03:07:21.577Z,99698.47
2018-11-02T03:09:54.040Z,99705.55
2018-11-02T03:12:26.748Z,99709.02
2018-11-02T03:14:59.333Z,99707.52
2018-11-02T03:17:31.772Z,99705.22
2018-11-02T03:20:06.132Z,99713.28
2018-11-02T03:22:38.945Z,99715.21
2018-11-02T03:25:11.756Z,99717.64
2018-11-02T03:27:44.203Z,99718.02
2018-11-02T03:30:16.652Z,99716.75
2018-11-02T03:32:49.151Z,99730.72
2018-11-02T03:35:21.638Z,99728.47
2018-11-02T03:37:54.067Z,99736.86
2018-11-02T03:40:26.508Z,99735.88
2018-11-02T03:42:59.072Z,99742.81
2018-11-02T03:45:31.484Z,99739.91
2018-11-02T03:48:04.050Z,99750.65
2018-11-02T03:50:36.568Z,99753.36
2018-11-02T03:53:09.062Z,99758.30
2018-11-02T03:55:42.326Z,99758.67
2018-11-02T03:58:15.600Z,99763.45
2018-11-02T04:00:48.019Z,99765.23
2018-11-02T04:03:20.562Z,99773.10
2018-11-02T04:05:53.001Z,99787.16
2018-11-02T04:08:25.472Z,99775.06
2018-11-02T04:10:57.932Z,99776.33
2018-11-02T04:13:30.500Z,99782.20
2018-11-02T04:16:02.993Z,99783.27
2018-11-02T04:18:35.482Z,99784.67
2018-11-02T04:21:07.986Z,99780.65
2018-11-02T04:23:40.400Z,99789.73
2018-11-02T04:26:12.867Z,99789.45
2018-11-02T04:28:45.300Z,99796.81
2018-11-02T04:31:17.844Z,99798.36
2018-11-02T04:33:50.338Z,99797.38
2018-11-02T04:36:22.840Z,99807.55
2018-11-02T04:38:55.244Z,99811.20
2018-11-02T04:41:27.752Z,99812.47
2018-11-02T04:44:00.299Z,99811.20
2018-11-02T04:46:32.755Z,99828.59
2018-11-02T04:49:05.814Z,99816.97
2018-11-02T04:51:38.532Z,99820.95
2018-11-02T04:54:10.981Z,99823.58
2018-11-02T04:56:43.440Z,99826.59
2018-11-02T04:59:15.872Z,99826.48
2018-11-02T05:01:48.411Z,99840.75
2018-11-02T05:04:20.901Z,99836.30
2018-11-02T05:06:53.425Z,99844.45
2018-11-02T05:09:25.867Z,99866.08
2018-11-02T05:11:58.319Z,99864.66
2018-11-02T05:14:31.405Z,99868.36
2018-11-02T05:17:03.985Z,99877.84
2018-11-02T05:19:36.451Z,99884.17
2018-11-02T05:22:09.166Z,99886.28
2018-11-02T05:24:42.333Z,99893.41
2018-11-02T05:27:14.815Z,99889.42
2018-11-02T05:29:47.284Z,99902.55
2018-11-02T05:32:19.812Z,99908.37
2018-11-02T05:34:52.512Z,99915.80
2018-11-02T05:37:24.933Z,99917.96
2018-11-02T05:39:57.400Z,99928.46
2018-11-02T05:42:29.923Z,99935.71
2018-11-02T05:45:02.375Z,99935.54
2018-11-02T05:47:34.886Z,99938.34
2018-11-02T05:50:07.867Z,99948.84
2018-11-02T05:52:40.379Z,99945.24
2018-11-02T05:55:12.836Z,99949.06
2018-11-02T05:57:45.318Z,99965.39
2018-11-02T06:00:17.793Z,99968.58
2018-11-02T06:02:50.263Z,99974.85
2018-11-02T06:05:22.723Z,99990.30
2018-11-02T06:07:55.409Z,100002.55
2018-11-02T06:10:27.776Z,100010.04
2018-11-02T06:13:00.472Z,100007.29
2018-11-02T06:15:32.989Z,100019.83
2018-11-02T06:18:05.647Z,100022.96
2018-11-02T06:20:38.126Z,100026.48
2018-11-02T06:23:10.633Z,100040.48
2018-11-02T06:25:43.153Z,100053.46
2018-11-02T06:28:15.635Z,100052.97
2018-11-02T06:30:48.147Z,100054.30
2018-11-02T06:33:20.614Z,100057.29
2018-11-02T06:35:53.090Z,100063.41
2018-11-02T06:38:25.520Z,100075.13
2018-11-02T06:40:58.032Z,100082.13
2018-11-02T06:43:30.480Z,100083.58
2018-11-02T06:46:02.925Z,100098.42
2018-11-02T06:48:35.329Z,100104.98
2018-11-02T06:51:07.856Z,100112.55
2018-11-02T06:53:40.291Z,100118.30
2018-11-02T06:56:12.793Z,100126.52
2018-11-02T06:58:45.322Z,100129.95
2018-11-02T07:01:17.830Z,100133.80
2018-11-02T07:03:50.255Z,100153.16
2018-11-02T07:06:22.677Z,100151.05
2018-11-02T07:08:55.034Z,100154.69
2018-11-02T07:11:27.815Z,100158.91
2018-11-02T07:14:00.253Z,100167.92
2018-11-02T07:16:32.660Z,100166.77
2018-11-02T07:19:05.166Z,100174.69
2018-11-02T07:21:37.653Z,100175.19
2018-11-02T07:24:10.080Z,100191.08
2018-11-02T07:26:42.583Z,100191.20
2018-11-02T07:29:15.001Z,100191.49
2018-11-02T07:31:47.461Z,100196.30
2018-11-02T07:34:20.042Z,100192.08
2018-11-02T07:36:52.485Z,100190.20
2018-11-02T07:39:30.561Z,100194.88
2018-11-02T07:42:03.472Z,100196.85
2018-11-02T07:44:35.987Z,100205.52
2018-11-02T07:47:08.519Z,100201.29
2018-11-02T07:49:41.097Z,100208.35
2018-11-02T07:52:13.458Z,100216.64
2018-11-02T07:54:45.914Z,100224.88
2018-11-02T07:57:18.424Z,100222.34
2018-11-02T07:59:50.933Z,100224.84
2018-11-02T08:02:23.271Z,100234.73
2018-11-02T08:04:55.680Z,100235.03
2018-11-02T08:07:28.112Z,100230.43
2018-11-02T08:10:00.544Z,100232.25
2018-11-02T08:12:32.908Z,100240.27
2018-11-02T08:15:07.180Z,100241.15
2018-11-02T08:17:40.563Z,100250.47
2018-11-02T08:20:13.239Z,100250.67
2018-11-02T08:22:45.608Z,100253.45
2018-11-02T08:25:18.025Z,100250.30
2018-11-02T08:27:50.494Z,100255.62
2018-11-02T08:30:22.984Z,100259.20
2018-11-02T08:32:55.347Z,100256.21
2018-11-02T08:35:27.758Z,100260.58
2018-11-02T08:38:00.403Z,100266.05
2018-11-02T08:40:32.786Z,100270.58
2018-11-02T08:43:05.193Z,100277.77
2018-11-02T08:45:39.254Z,100284.75
2018-11-02T08:48:11.615Z,100292.16
2018-11-02T08:50:43.976Z,100289.46
2018-11-02T08:53:16.320Z,100297.67
2018-11-02T08:55:48.819Z,100308.58
2018-11-02T08:58:21.386Z,100308.28
2018-11-02T09:00:53.722Z,100316.66
2018-11-02T09:03:26.040Z,100318.60
2018-11-02T09:05:58.663Z,100324.68
2018-11-02T09:08:31.183Z,100326.16
2018-11-02T09:11:03.921Z,100322.14
2018-11-02T09:13:36.319Z,100323.75
2018-11-02T09:16:08.827Z,100331.23
2018-11-02T09:18:41.273Z,100332.46
2018-11-02T09:21:13.665Z,100336.80
2018-11-02T09:23:46.105Z,100342.99
2018-11-02T09:26:18.629Z,100345.45
2018-11-02T09:28:51.068Z,100344.42
2018-11-02T09:31:23.682Z,100343.81
2018-11-02T09:33:56.164Z,100353.13
2018-11-02T09:36:29.537Z,100358.67
2018-11-02T09:39:02.993Z,100362.55
2018-11-02T09:41:36.398Z,100366.53
2018-11-02T09:44:10.046Z,100366.45
2018-11-02T09:46:43.230Z,100371.49
2018-11-02T09:49:16.632Z,100366.25
2018-11-02T09:51:49.833Z,100370.62
2018-11-02T09:54:23.208Z,100386.96
2018-11-02T09:56:56.327Z,100382.08
2018-11-02T09:59:29.672Z,100386.45
2018-11-02T10:02:03.331Z,100388.98
2018-11-02T10:04:36.339Z,100401.29
2018-11-02T10:07:09.240Z,100402.54
2018-11-02T10:09:42.763Z,100404.98
2018-11-02T10:12:16.681Z,100403.45
2018-11-02T10:14:50.225Z,100412.64
2018-11-02T10:17:23.241Z,100413.52
2018-11-02T10:19:56.442Z,100415.93
2018-11-02T10:22:30.035Z,100422.86
2018-11-02T10:25:03.602Z,100429.79
2018-11-02T10:27:37.270Z,100434.05
2018-11-02T10:30:12.133Z,100438.84
2018-11-02T10:32:49.054Z,100446.31
2018-11-02T10:35:22.846Z,100449.34
2018-11-02T10:37:57.750Z,100455.91
2018-11-02T10:40:32.401Z,100460.80
2018-11-02T10:43:10.326Z,100472.98
2018-11-02T10:45:45.420Z,100469.77
2018-11-02T10:49:47.911Z,100468.73
2018-11-02T10:52:21.340Z,100483.94
2018-11-02T10:54:54.551Z,100486.06
2018-11-02T10:57:27.828Z,100481.63
2018-11-02T11:00:01.357Z,100477.44
2018-11-02T11:02:37.949Z,100482.77
2018-11-02T11:05:11.269Z,100484.91
2018-11-02T11:07:44.706Z,100483.63
2018-11-02T11:10:18.225Z,100482.30
2018-11-02T11:12:51.575Z,100497.08
2018-11-02T11:15:25.146Z,100507.24
2018-11-02T11:17:58.504Z,100497.53
2018-11-02T11:20:31.711Z,100501.42
2018-11-02T11:23:05.253Z,100513.10
2018-11-02T11:25:39.061Z,100514.75
2018-11-02T11:28:11.971Z,100507.09
2018-11-02T11:30:44.897Z,100519.47
2018-11-02T11:33:17.831Z,100523.94
2018-11-02T11:35:51.109Z,100522.17
2018-11-02T11:38:24.589Z,100515.96
2018-11-02T11:40:58.437Z,100525.95
2018-11-02T11:43:32.355Z,100532.94
2018-11-02T11:46:06.113Z,100534.09
2018-11-02T11:48:39.925Z,100535.73
2018-11-02T11:51:13.651Z,100533.27
2018-11-02T11:53:47.360Z,100540.84
2018-11-02T11:56:20.126Z,100535.73
2018-11-02T11:58:53.271Z,100543.31
2018-11-02T12:01:27.732Z,100550.52
2018-11-02T12:04:00.978Z,100548.61
2018-11-02T12:06:34.067Z,100560.84
2018-11-02T12:09:08.710Z,100553.83
2018-11-02T12:11:42.369Z,100550.31
2018-11-02T12:14:15.967Z,100556.16
2018-11-02T12:16:49.364Z,100560.77
2018-11-02T12:19:22.971Z,100560.55
2018-11-02T12:21:56.537Z,100567.06
2018-11-02T12:24:30.215Z,100566.09
2018-11-02T12:27:03.841Z,100575.63
2018-11-02T12:29:37.478Z,100570.80
2018-11-02T12:32:10.880Z,100569.86
2018-11-02T12:34:43.761Z,100570.67
2018-11-02T12:37:16.904Z,100561.27
2018-11-02T12:39:50.409Z,100556.03
2018-11-02T12:42:23.494Z,100562.48
2018-11-02T12:44:57.146Z,100562.10
2018-11-02T12:47:30.974Z,100565.40
2018-11-02T12:50:05.380Z,100565.67
2018-11-02T12:52:39.040Z,100569.06
2018-11-02T12:55:13.117Z,100567.09
2018-11-02T12:57:46.633Z,100564.25
2018-11-02T13:00:21.008Z,100573.22
2018-11-02T13:02:54.753Z,100580.61
2018-11-02T13:05:28.333Z,100578.63
2018-11-02T13:08:01.020Z,100586.57
2018-11-02T13:10:34.435Z,100596.81
2018-11-02T13:13:07.918Z,100599.91
2018-11-02T13:15:41.206Z,100596.77
2018-11-02T13:18:17.031Z,100586.41
2018-11-02T13:20:50.025Z,100587.16
2018-11-02T13:23:23.949Z,100597.83
2018-11-02T13:25:57.407Z,100601.03
2018-11-02T13:28:31.020Z,100605.41
2018-11-02T13:31:04.470Z,100603.21
2018-11-02T13:33:37.263Z,100610.62
2018-11-02T13:36:10.674Z,100607.34
2018-11-02T13:38:43.137Z,100608.44
2018-11-02T13:41:16.188Z,100606.60
2018-11-02T13:43:49.978Z,100609.66
2018-11-02T13:46:22.911Z,100618.86
2018-11-02T13:48:56.311Z,100623.49
2018-11-02T13:51:29.861Z,100628.44
2018-11-02T13:54:03.398Z,100631.88
2018-11-02T13:56:36.926Z,100635.06
2018-11-02T13:59:12.319Z,100646.87
2018-11-02T14:01:45.488Z,100645.57
2018-11-02T14:04:18.142Z,100642.22
2018-11-02T14:06:51.315Z,100653.45
2018-11-02T14:09:24.477Z,100649.88
2018-11-02T14:11:57.915Z,100659.59
2018-11-02T14:14:31.007Z,100663.57
2018-11-02T14:17:04.265Z,100661.58
2018-11-02T14:19:37.072Z,100668.05
2018-11-02T14:22:10.576Z,100673.12
2018-11-02T14:24:43.248Z,100686.58
2018-11-02T14:27:16.301Z,100693.77
2018-11-02T14:29:49.485Z,100701.97
2018-11-02T14:32:22.933Z,100701.43
2018-11-02T14:34:56.512Z,100713.91
2018-11-02T14:37:29.696Z,100716.49
2018-11-02T14:40:02.745Z,100721.67
2018-11-02T14:42:36.387Z,100739.23
2018-11-02T14:45:12.232Z,100744.50
2018-11-02T14:47:46.007Z,100753.00
2018-11-02T14:50:19.637Z,100761.50
2018-11-02T14:52:53.219Z,100772.50
2018-11-02T14:55:26.764Z,100766.77
2018-11-02T14:58:01.314Z,100770.31
2018-11-02T15:00:34.446Z,100760.07
2018-11-02T15:03:07.068Z,100763.20
2018-11-02T15:05:39.550Z,100764.34
2018-11-02T15:08:11.993Z,100771.07
2018-11-02T15:10:45.091Z,100777.84
2018-11-02T15:13:18.365Z,100777.16
2018-11-02T15:15:50.828Z,100774.03
2018-11-02T15:18:24.160Z,100777.17
2018-11-02T15:20:56.752Z,100787.67
2018-11-02T15:23:29.296Z,100790.19
